Time;durP1;ratioP1;P1;durP2;ratioP2;P2;SDS_P1;SDS_P2;PMS_P1;PMS_P2;Temp;Humidity;BMP_temperature;BMP_pressure;BME280_temperature;BME280_humidity;BME280_pressure;Samples;Min_cycle;Max_cycle;Signal;HPM_P1;HPM_P2
2023/05/06 00:00:27;;;;;;;7.57;5.95;;;;;;;8.54;74.40;94904.84;5066028;28;20036;-74
2023/05/06 00:02:52;;;;;;;7.05;5.45;;;;;;;8.53;75.09;94916.16;5052693;28;20570;-75
2023/05/06 00:05:18;;;;;;;7.03;6.13;;;;;;;8.52;74.30;94924.03;5052976;28;20483;-75
2023/05/06 00:07:45;;;;;;;7.75;5.97;;;;;;;8.32;75.09;94909.91;5033218;28;20033;-75
2023/05/06 00:10:10;;;;;;;8.85;5.93;;;;;;;8.14;75.07;94906.88;5057310;28;20033;-75
2023/05/06 00:12:36;;;;;;;10.38;6.32;;;;;;;8.11;75.01;94917.44;5037749;28;20044;-74
2023/05/06 00:15:02;;;;;;;7.88;6.07;;;;;;;7.84;75.37;94884.84;5052343;28;20137;-75
2023/05/06 00:17:27;;;;;;;10.73;6.90;;;;;;;7.86;75.78;94897.69;5051712;28;20060;-74
2023/05/06 00:19:54;;;;;;;10.48;7.40;;;;;;;7.97;76.41;94915.84;5069634;28;20064;-74
2023/05/06 00:22:20;;;;;;;8.48;6.47;;;;;;;8.00;76.17;94911.28;5072570;28;20039;-74
2023/05/06 00:24:46;;;;;;;8.77;6.13;;;;;;;7.99;76.27;94912.19;5068390;28;20025;-74
2023/05/06 00:27:12;;;;;;;7.38;6.10;;;;;;;7.86;75.65;94911.44;5055235;28;20570;-74
2023/05/06 00:29:37;;;;;;;7.88;6.18;;;;;;;7.88;75.66;94916.50;5055317;28;20063;-74
2023/05/06 00:32:03;;;;;;;7.43;5.85;;;;;;;7.83;74.56;94919.41;5055009;28;20028;-74
2023/05/06 00:34:28;;;;;;;7.35;6.25;;;;;;;7.52;74.85;94911.22;5086964;28;20111;-74
2023/05/06 00:36:54;;;;;;;8.40;6.03;;;;;;;7.50;75.64;94923.41;5072375;28;20466;-74
2023/05/06 00:39:20;;;;;;;8.90;6.20;;;;;;;7.33;76.54;94905.66;5071993;28;20036;-75
2023/05/06 00:41:45;;;;;;;9.48;5.85;;;;;;;7.48;76.63;94920.09;5071584;28;20056;-74
2023/05/06 00:44:11;;;;;;;7.72;6.07;;;;;;;7.25;75.85;94876.94;5058020;28;20032;-74
2023/05/06 00:46:36;;;;;;;8.05;6.28;;;;;;;7.49;74.96;94919.16;5055227;28;20033;-74
2023/05/06 00:49:02;;;;;;;8.70;6.28;;;;;;;7.42;75.12;94915.34;5054377;28;20035;-74
2023/05/06 00:51:27;;;;;;;8.93;6.05;;;;;;;7.35;76.11;94914.09;5070816;28;20043;-74
2023/05/06 00:53:53;;;;;;;10.18;7.07;;;;;;;7.36;76.42;94915.78;5072843;28;20029;-74
2023/05/06 00:56:18;;;;;;;8.73;6.50;;;;;;;7.15;76.01;94893.03;5055105;28;20067;-74
2023/05/06 00:58:44;;;;;;;7.82;6.03;;;;;;;7.13;76.03;94901.81;5054612;28;20043;-74
2023/05/06 01:01:10;;;;;;;7.40;5.32;;;;;;;7.09;75.56;94914.13;5055126;28;20067;-74
2023/05/06 01:03:36;;;;;;;9.88;5.60;;;;;;;6.88;76.59;94900.91;5055114;28;20051;-74
2023/05/06 01:06:23;;;;;;;8.77;6.03;;;;;;;6.93;76.73;94916.91;5069796;28;20029;-74
2023/05/06 01:08:56;;;;;;;8.07;5.45;;;;;;;7.03;77.07;94904.22;5051715;28;20052;-74
2023/05/06 01:11:42;;;;;;;11.73;6.90;;;;;;;6.94;78.10;94902.25;5050083;28;20036;-74
2023/05/06 01:14:32;;;;;;;8.65;6.32;;;;;;;6.92;78.95;94888.63;5071769;28;20071;-74
2023/05/06 01:17:01;;;;;;;8.18;6.03;;;;;;;7.07;78.86;94894.50;5039469;28;20053;-74
2023/05/06 01:19:35;;;;;;;7.72;5.63;;;;;;;7.07;79.00;94910.81;5035165;28;20028;-74
2023/05/06 01:22:02;;;;;;;8.35;5.72;;;;;;;7.26;78.12;94907.81;5068539;28;20036;-74
2023/05/06 01:24:38;;;;;;;7.47;5.75;;;;;;;7.06;78.19;94875.59;5071866;28;20103;-74
2023/05/06 01:27:03;;;;;;;8.27;5.40;;;;;;;7.08;77.66;94875.50;5059032;28;20112;-74
2023/05/06 01:29:29;;;;;;;7.90;5.63;;;;;;;7.30;77.51;94900.66;5069664;28;20418;-74
2023/05/06 01:31:54;;;;;;;8.20;5.60;;;;;;;7.39;77.35;94900.88;5060867;28;20024;-73
2023/05/06 01:34:22;;;;;;;7.68;5.55;;;;;;;7.33;77.59;94906.47;5037924;28;20032;-74
2023/05/06 01:37:00;;;;;;;7.88;5.72;;;;;;;7.36;76.22;94905.44;5071652;28;20024;-74
2023/05/06 01:39:26;;;;;;;9.48;5.47;;;;;;;7.25;75.94;94903.59;5070995;28;20518;-74
2023/05/06 01:41:52;;;;;;;7.90;5.60;;;;;;;7.22;75.07;94890.06;5051927;28;20032;-74
2023/05/06 01:44:19;;;;;;;7.22;5.68;;;;;;;7.03;76.26;94901.63;5037747;28;20123;-74
2023/05/06 01:46:45;;;;;;;10.07;6.22;;;;;;;7.01;76.35;94897.50;5051006;28;20052;-74
2023/05/06 01:49:10;;;;;;;8.82;6.13;;;;;;;6.93;76.32;94898.81;5034500;28;20487;-74
2023/05/06 01:51:36;;;;;;;8.50;5.78;;;;;;;6.99;76.44;94897.59;5066869;28;20036;-74
2023/05/06 01:54:02;;;;;;;7.38;5.60;;;;;;;6.93;76.45;94906.56;5017778;28;20107;-74
2023/05/06 01:56:29;;;;;;;8.05;5.75;;;;;;;6.76;77.23;94906.06;5053948;28;20492;-74
2023/05/06 01:58:56;;;;;;;8.40;6.05;;;;;;;6.80;77.91;94912.66;5070642;28;20028;-74
2023/05/06 02:01:21;;;;;;;8.63;5.72;;;;;;;7.01;77.56;94905.25;5053820;28;20032;-74
2023/05/06 02:03:47;;;;;;;7.97;5.10;;;;;;;7.00;77.31;94903.59;5052862;28;20124;-74
2023/05/06 02:06:12;;;;;;;7.22;5.50;;;;;;;6.90;76.98;94909.38;5070138;28;20498;-74
2023/05/06 02:08:39;;;;;;;8.82;5.80;;;;;;;6.74;77.23;94895.81;5071612;28;20020;-74
2023/05/06 02:11:05;;;;;;;6.97;5.13;;;;;;;6.86;77.22;94907.94;5050378;28;20016;-74
2023/05/06 02:13:30;;;;;;;7.18;5.40;;;;;;;6.70;77.39;94902.94;5066671;28;20403;-74
2023/05/06 02:15:55;;;;;;;8.20;5.43;;;;;;;6.72;78.36;94901.09;5069632;28;20021;-74
2023/05/06 02:18:21;;;;;;;7.28;5.13;;;;;;;6.86;78.25;94901.94;5060878;28;20417;-74
2023/05/06 02:20:46;;;;;;;8.25;5.70;;;;;;;6.75;78.71;94909.56;5070224;28;20453;-74
2023/05/06 02:23:12;;;;;;;8.07;5.68;;;;;;;6.67;78.45;94872.16;5069969;28;20037;-74
2023/05/06 02:25:37;;;;;;;8.27;5.70;;;;;;;6.85;79.00;94905.44;5071169;28;20025;-74
2023/05/06 02:28:03;;;;;;;8.75;5.85;;;;;;;6.93;78.97;94904.00;5065589;28;20059;-74
2023/05/06 02:30:29;;;;;;;6.85;5.18;;;;;;;7.06;78.53;94908.34;5070097;28;20021;-74
2023/05/06 02:32:56;;;;;;;8.77;5.15;;;;;;;7.13;77.64;94888.91;5069946;28;20037;-74
2023/05/06 02:35:22;;;;;;;7.28;5.38;;;;;;;7.03;77.07;94864.66;5048342;28;20037;-73
2023/05/06 02:37:47;;;;;;;6.28;5.38;;;;;;;7.05;77.44;94892.03;5071373;28;20445;-74
2023/05/06 02:40:13;;;;;;;7.57;5.95;;;;;;;7.00;77.61;94899.25;5053389;28;20032;-74
2023/05/06 02:42:38;;;;;;;8.48;5.63;;;;;;;7.25;76.71;94901.00;5056295;28;20115;-74
2023/05/06 02:45:04;;;;;;;6.10;4.95;;;;;;;7.26;76.63;94897.47;5048094;28;20033;-74
2023/05/06 02:47:30;;;;;;;8.02;5.57;;;;;;;7.23;76.59;94894.28;5049964;28;20041;-74
2023/05/06 02:49:55;;;;;;;7.18;5.30;;;;;;;7.30;76.22;94895.50;5032264;28;20036;-74
2023/05/06 02:52:21;;;;;;;7.13;5.20;;;;;;;7.06;77.37;94898.00;5049969;28;20112;-74
2023/05/06 02:54:46;;;;;;;8.35;5.53;;;;;;;6.95;77.64;94906.47;5048978;28;20556;-73
2023/05/06 02:57:12;;;;;;;7.00;5.20;;;;;;;6.85;77.38;94910.59;5050281;28;20033;-73
2023/05/06 02:59:38;;;;;;;8.40;5.88;;;;;;;6.72;76.96;94908.84;5032227;28;20025;-74
2023/05/06 03:02:03;;;;;;;8.57;5.90;;;;;;;6.68;77.50;94915.13;5049106;28;20033;-73
2023/05/06 03:04:29;;;;;;;8.07;5.63;;;;;;;6.67;77.40;94917.81;5052147;28;20052;-73
2023/05/06 03:06:54;;;;;;;8.80;5.47;;;;;;;6.66;77.13;94913.59;5086667;28;20028;-73
2023/05/06 03:09:20;;;;;;;7.07;5.47;;;;;;;6.61;77.20;94919.03;5070859;28;20090;-74
2023/05/06 03:11:45;;;;;;;8.88;5.28;;;;;;;6.48;78.03;94916.44;5069591;28;20033;-74
2023/05/06 03:14:11;;;;;;;8.43;5.45;;;;;;;6.62;78.16;94915.53;5069543;28;20032;-74
2023/05/06 03:16:36;;;;;;;9.35;5.60;;;;;;;6.67;78.35;94916.06;5070242;28;20040;-73
2023/05/06 03:19:05;;;;;;;7.63;5.50;;;;;;;6.69;78.09;94921.13;5070682;28;20086;-74
2023/05/06 03:21:30;;;;;;;7.78;5.75;;;;;;;6.82;78.11;94921.13;5069386;28;20550;-74
2023/05/06 03:23:56;;;;;;;7.97;5.72;;;;;;;6.89;78.05;94917.22;5052762;28;20127;-74
2023/05/06 03:26:21;;;;;;;6.78;5.28;;;;;;;7.01;78.09;94916.41;5055167;28;20557;-74
2023/05/06 03:28:47;;;;;;;6.30;4.68;;;;;;;7.10;77.41;94922.69;5032876;28;20515;-74
2023/05/06 03:31:12;;;;;;;7.20;5.00;;;;;;;7.03;76.45;94929.22;5016212;28;20025;-74
2023/05/06 03:33:38;;;;;;;8.63;5.70;;;;;;;6.72;76.73;94900.28;5051574;28;20033;-74
2023/05/06 03:36:04;;;;;;;7.28;4.95;;;;;;;6.88;77.07;94939.66;5032257;28;20028;-74
2023/05/06 03:38:29;;;;;;;8.43;4.75;;;;;;;6.90;77.09;94934.38;5049257;28;20115;-74
2023/05/06 03:40:55;;;;;;;7.60;5.43;;;;;;;6.90;77.53;94932.59;5050147;28;20113;-73
2023/05/06 03:43:20;;;;;;;7.82;5.10;;;;;;;6.80;78.29;94917.81;5049606;28;20033;-74
2023/05/06 03:45:46;;;;;;;6.57;5.10;;;;;;;6.91;78.36;94944.59;5032504;28;20475;-73
2023/05/06 03:48:11;;;;;;;7.10;5.25;;;;;;;6.95;77.82;94934.88;5032674;28;20341;-73
2023/05/06 03:50:37;;;;;;;8.00;5.10;;;;;;;6.98;77.72;94926.94;5050622;28;20033;-73
2023/05/06 03:53:02;;;;;;;8.05;5.75;;;;;;;6.98;78.37;94921.78;5049169;28;20044;-73
2023/05/06 03:55:28;;;;;;;8.95;6.28;;;;;;;7.05;78.98;94942.84;5049924;28;20338;-74
2023/05/06 03:57:53;;;;;;;7.80;5.20;;;;;;;7.01;79.15;94934.47;5049204;28;20036;-74
2023/05/06 04:00:19;;;;;;;7.63;5.57;;;;;;;7.13;79.39;94949.19;5048158;28;20511;-73
2023/05/06 04:02:45;;;;;;;8.65;6.32;;;;;;;7.16;79.78;94940.41;5052417;28;20118;-73
2023/05/06 04:05:10;;;;;;;10.27;7.22;;;;;;;7.24;79.65;94947.59;5065397;28;20091;-73
2023/05/06 04:07:36;;;;;;;10.10;6.63;;;;;;;7.10;79.34;94915.78;5016128;28;20057;-74
2023/05/06 04:10:01;;;;;;;10.10;6.97;;;;;;;7.42;78.99;94948.13;5053125;28;20032;-74
2023/05/06 04:12:26;;;;;;;7.75;5.65;;;;;;;7.56;79.24;94951.41;5052323;28;20453;-73
2023/05/06 04:14:52;;;;;;;8.27;6.55;;;;;;;7.60;79.11;94946.84;5070264;28;20029;-74
2023/05/06 04:17:17;;;;;;;8.00;6.10;;;;;;;7.60;79.60;94944.25;5062158;28;20204;-74
2023/05/06 04:19:43;;;;;;;9.00;6.55;;;;;;;7.72;79.32;94942.63;5047423;28;20521;-74
2023/05/06 04:22:08;;;;;;;10.50;7.35;;;;;;;7.94;78.62;94954.84;5048712;28;20540;-74
2023/05/06 04:24:34;;;;;;;10.18;7.47;;;;;;;7.87;79.07;94951.88;5048374;28;20054;-74
2023/05/06 04:27:01;;;;;;;14.02;8.57;;;;;;;7.95;78.91;94957.34;5042596;28;20053;-74
2023/05/06 04:29:26;;;;;;;14.23;10.77;;;;;;;7.98;78.50;94957.13;5069342;28;20025;-74
2023/05/06 04:31:52;;;;;;;13.57;10.60;;;;;;;8.03;76.84;94957.63;5051809;28;20036;-74
2023/05/06 04:34:18;;;;;;;12.05;9.75;;;;;;;8.23;76.44;94963.16;5069477;28;20029;-74
2023/05/06 04:36:44;;;;;;;11.35;9.32;;;;;;;8.58;75.90;94962.41;5050844;28;20040;-74
2023/05/06 04:39:10;;;;;;;12.07;9.73;;;;;;;8.61;76.12;94964.78;5068247;28;20040;-74
2023/05/06 04:41:36;;;;;;;12.02;9.57;;;;;;;8.63;76.27;94968.09;5029554;28;20025;-74
2023/05/06 04:44:02;;;;;;;9.52;8.20;;;;;;;8.74;76.66;94970.72;5064939;28;20638;-74
2023/05/06 04:46:28;;;;;;;9.18;6.78;;;;;;;8.92;77.35;94971.97;5062751;28;20044;-74
2023/05/06 04:48:53;;;;;;;8.23;5.85;;;;;;;8.87;76.59;94935.22;5048774;28;20111;-74
2023/05/06 04:51:19;;;;;;;8.02;6.00;;;;;;;9.21;76.18;94962.97;5066132;28;20037;-74
2023/05/06 04:53:45;;;;;;;6.95;5.55;;;;;;;9.35;74.62;94971.34;5060295;28;20020;-74
2023/05/06 04:56:11;;;;;;;8.50;5.25;;;;;;;9.54;74.36;94973.38;5066263;28;20040;-74
2023/05/06 04:58:36;;;;;;;7.97;5.22;;;;;;;9.61;74.74;94977.16;5064668;28;20036;-74
2023/05/06 05:01:06;;;;;;;13.68;10.48;;;;;;;9.93;73.53;94984.22;5046393;28;20029;-74
2023/05/06 05:03:32;;;;;;;14.50;10.52;;;;;;;10.12;73.01;94973.25;5049975;28;20044;-74
2023/05/06 05:05:57;;;;;;;12.40;9.52;;;;;;;10.16;72.56;94974.63;5058980;28;20024;-74
2023/05/06 05:08:22;;;;;;;19.20;12.80;;;;;;;10.55;70.98;94988.03;5066004;28;20051;-73
2023/05/06 05:10:48;;;;;;;13.05;9.32;;;;;;;10.69;69.17;94971.34;5050884;28;20086;-74
2023/05/06 05:13:14;;;;;;;14.98;12.13;;;;;;;11.05;69.59;94985.72;5060632;28;20021;-74
2023/05/06 05:15:39;;;;;;;15.55;12.93;;;;;;;11.07;69.48;94989.03;5058524;28;20029;-75
2023/05/06 05:18:05;;;;;;;27.23;19.40;;;;;;;11.10;68.31;94990.56;5047794;28;20045;-75
2023/05/06 05:20:30;;;;;;;18.50;14.50;;;;;;;10.99;69.57;94988.84;5058618;28;20049;-75
2023/05/06 05:22:56;;;;;;;17.73;14.23;;;;;;;10.99;70.29;94985.41;5063007;28;20040;-74
2023/05/06 05:25:22;;;;;;;15.38;12.90;;;;;;;10.92;71.09;94979.88;5066729;28;20032;-75
2023/05/06 05:27:47;;;;;;;21.85;19.63;;;;;;;11.01;69.80;95002.53;5065538;28;20041;-74
2023/05/06 05:30:13;;;;;;;19.58;13.00;;;;;;;11.19;69.63;94997.59;5049897;28;20501;-75
2023/05/06 05:32:38;;;;;;;20.20;15.18;;;;;;;11.04;68.79;94997.09;5051433;28;20037;-75
2023/05/06 05:35:04;;;;;;;18.10;15.02;;;;;;;11.04;68.84;94997.09;5064844;28;20036;-75
2023/05/06 05:37:30;;;;;;;22.30;18.95;;;;;;;11.03;69.21;94984.19;5066996;28;20044;-75
2023/05/06 05:39:56;;;;;;;39.05;29.40;;;;;;;11.05;68.95;94980.53;5049881;28;20559;-75
2023/05/06 05:42:21;;;;;;;12.02;9.68;;;;;;;11.17;69.43;94995.13;5068294;28;20547;-75
2023/05/06 05:44:47;;;;;;;9.73;7.78;;;;;;;11.14;68.72;94994.53;5050760;28;20028;-75
2023/05/06 05:47:13;;;;;;;8.95;7.13;;;;;;;11.18;68.69;94996.78;5063968;28;20029;-75
2023/05/06 05:49:38;;;;;;;9.90;8.25;;;;;;;11.34;68.61;94990.31;5032327;28;20036;-75
2023/05/06 05:52:04;;;;;;;10.32;8.50;;;;;;;11.27;68.17;94997.78;5066870;28;20032;-75
2023/05/06 05:54:29;;;;;;;11.27;8.90;;;;;;;11.24;67.73;95002.44;5067371;28;20506;-75
2023/05/06 05:56:55;;;;;;;13.25;9.45;;;;;;;11.32;68.54;95000.84;5065260;28;20036;-75
2023/05/06 05:59:20;;;;;;;13.93;9.63;;;;;;;11.34;68.91;95003.31;5064821;28;20106;-75
2023/05/06 06:01:45;;;;;;;14.18;10.13;;;;;;;11.32;69.21;95000.03;5033524;28;20048;-75
2023/05/06 06:04:11;;;;;;;14.05;9.50;;;;;;;11.36;68.81;95001.41;5063506;28;20049;-75
2023/05/06 06:06:36;;;;;;;14.68;10.38;;;;;;;11.31;69.12;95003.56;5060638;28;20028;-75
2023/05/06 06:09:03;;;;;;;13.88;10.82;;;;;;;11.29;69.76;95005.47;5061636;28;20056;-76
2023/05/06 06:11:28;;;;;;;18.45;13.10;;;;;;;11.34;69.03;95003.31;5049919;28;20044;-76
2023/05/06 06:13:54;;;;;;;15.23;11.00;;;;;;;11.43;70.05;95007.75;5083959;28;20037;-75
2023/05/06 06:16:23;;;;;;;12.80;9.90;;;;;;;11.53;68.36;95016.44;5068816;28;20048;-75
2023/05/06 06:18:48;;;;;;;19.30;13.48;;;;;;;11.52;67.89;95022.59;5037888;28;20441;-75
2023/05/06 06:21:14;;;;;;;19.23;13.40;;;;;;;11.50;68.15;95008.88;5049554;28;20032;-75
2023/05/06 06:23:39;;;;;;;20.67;14.73;;;;;;;11.57;68.71;95004.81;5081071;28;20034;-75
2023/05/06 06:26:05;;;;;;;20.08;14.05;;;;;;;11.72;68.34;95002.69;5048018;28;20403;-75
2023/05/06 06:28:30;;;;;;;19.00;13.15;;;;;;;11.86;66.93;95006.78;5064534;28;20035;-75
2023/05/06 06:30:56;;;;;;;16.75;12.70;;;;;;;11.73;66.99;95013.94;5049715;28;20445;-75
2023/05/06 06:33:21;;;;;;;18.85;12.10;;;;;;;11.71;67.47;95010.66;5050653;28;20032;-75
2023/05/06 06:35:47;;;;;;;16.08;11.70;;;;;;;11.72;67.30;95009.69;5044417;28;20050;-75
2023/05/06 06:38:12;;;;;;;19.33;11.80;;;;;;;11.75;67.46;95007.66;5082982;28;20081;-75
2023/05/06 06:40:38;;;;;;;14.25;11.65;;;;;;;11.79;67.68;95013.44;5048431;28;20417;-75
2023/05/06 06:43:03;;;;;;;15.77;10.73;;;;;;;11.88;67.68;95011.88;5066455;28;20036;-75
2023/05/06 06:45:28;;;;;;;14.70;10.35;;;;;;;11.91;66.96;95012.41;5068894;28;20020;-75
2023/05/06 06:47:54;;;;;;;16.00;10.20;;;;;;;12.01;66.63;95015.91;5065059;28;20032;-75
2023/05/06 06:50:20;;;;;;;12.20;8.98;;;;;;;12.11;66.10;94991.66;5044959;28;20021;-76
2023/05/06 06:52:45;;;;;;;12.13;7.82;;;;;;;12.22;65.96;95020.22;5055726;28;21126;-75
2023/05/06 06:55:11;;;;;;;10.70;8.50;;;;;;;12.28;66.41;95009.25;5068046;28;20024;-75
2023/05/06 06:57:37;;;;;;;9.15;7.55;;;;;;;12.42;66.10;95010.66;5065539;28;20048;-75
2023/05/06 07:00:04;;;;;;;7.70;6.47;;;;;;;12.56;65.08;95001.66;5063317;28;20056;-75
2023/05/06 07:02:29;;;;;;;11.27;8.60;;;;;;;12.69;63.88;95017.88;5068875;28;20110;-75
2023/05/06 07:04:55;;;;;;;16.13;10.25;;;;;;;12.72;64.12;95007.16;5065165;28;20033;-75
2023/05/06 07:07:20;;;;;;;13.57;9.00;;;;;;;12.84;62.38;95018.28;5069055;28;20040;-75
2023/05/06 07:09:46;;;;;;;14.40;9.23;;;;;;;12.90;61.86;95004.72;5052201;28;20027;-75
2023/05/06 07:12:11;;;;;;;10.30;8.10;;;;;;;13.19;62.07;95015.97;5045831;28;20115;-73
2023/05/06 07:14:37;;;;;;;10.35;7.10;;;;;;;13.33;61.76;95019.97;5060246;28;20047;-74
2023/05/06 07:17:02;;;;;;;9.65;7.63;;;;;;;13.49;61.16;95016.81;5064357;28;20040;-76
2023/05/06 07:19:28;;;;;;;8.40;6.05;;;;;;;13.62;60.11;95016.50;5053961;28;20062;-74
2023/05/06 07:21:53;;;;;;;9.98;7.22;;;;;;;13.78;59.40;95021.94;5039415;28;20051;-72
2023/05/06 07:24:19;;;;;;;7.88;6.55;;;;;;;13.66;58.96;94990.94;5032050;28;20094;-72
2023/05/06 07:26:45;;;;;;;8.98;6.85;;;;;;;14.06;59.74;95024.63;5058735;28;20600;-73
2023/05/06 07:29:11;;;;;;;10.02;7.00;;;;;;;14.18;59.08;95013.03;5076318;28;20067;-72
2023/05/06 07:31:37;;;;;;;8.82;6.80;;;;;;;14.46;58.98;95016.47;5040425;28;20068;-75
2023/05/06 07:34:02;;;;;;;9.60;7.32;;;;;;;14.45;58.46;94999.13;5050980;28;20040;-73
2023/05/06 07:36:27;;;;;;;9.32;7.13;;;;;;;14.86;57.15;95030.16;5042184;28;20041;-72
2023/05/06 07:38:53;;;;;;;9.18;6.72;;;;;;;14.98;56.89;95026.34;5051088;28;20040;-72
2023/05/06 07:41:19;;;;;;;8.82;6.53;;;;;;;15.12;55.86;95022.41;5060002;28;20032;-72
2023/05/06 07:43:45;;;;;;;8.55;7.18;;;;;;;15.16;55.79;95011.50;5055744;28;20032;-71
2023/05/06 07:46:10;;;;;;;10.15;6.32;;;;;;;15.48;55.18;95019.75;5050287;28;20564;-72
2023/05/06 07:48:36;;;;;;;9.82;6.90;;;;;;;15.49;53.47;94998.69;5049687;28;20024;-74
2023/05/06 07:51:01;;;;;;;10.13;7.38;;;;;;;15.65;53.15;95004.00;5045744;28;20419;-72
2023/05/06 07:53:47;;;;;;;10.35;7.20;;;;;;;15.93;53.08;95008.31;5037135;28;20025;-74
2023/05/06 07:56:12;;;;;;;7.28;5.85;;;;;;;16.22;51.39;95010.59;5044544;28;20043;-71
2023/05/06 07:58:38;;;;;;;7.53;6.65;;;;;;;16.27;51.51;95018.81;5057275;28;20029;-71
2023/05/06 08:01:04;;;;;;;10.48;7.90;;;;;;;16.36;51.47;95012.63;5051994;28;20017;-70
2023/05/06 08:03:30;;;;;;;7.97;6.85;;;;;;;16.34;51.77;95009.31;5081784;28;20101;-72
2023/05/06 08:05:55;;;;;;;7.82;6.35;;;;;;;16.53;51.14;95014.31;5064237;28;20024;-71
2023/05/06 08:08:21;;;;;;;7.25;6.30;;;;;;;16.42;51.74;95009.38;5068621;28;20394;-71
2023/05/06 08:10:47;;;;;;;8.48;6.10;;;;;;;16.68;51.09;95008.47;5052960;28;20035;-72
2023/05/06 08:13:12;;;;;;;6.70;5.40;;;;;;;16.87;49.95;94996.91;5072847;28;20059;-71
2023/05/06 08:15:38;;;;;;;9.27;7.32;;;;;;;17.18;50.71;94994.47;5083471;28;20036;-72
2023/05/06 08:18:04;;;;;;;7.43;5.50;;;;;;;17.51;49.43;95002.38;5068310;28;20037;-71
2023/05/06 08:20:29;;;;;;;7.07;5.30;;;;;;;17.73;48.79;95008.75;5042209;28;20020;-71
2023/05/06 08:22:55;;;;;;;7.07;5.78;;;;;;;17.82;49.00;95005.16;5058560;28;20068;-71
2023/05/06 08:25:20;;;;;;;7.15;5.95;;;;;;;17.93;48.11;94990.84;5057651;28;20256;-71
2023/05/06 08:27:46;;;;;;;7.65;5.85;;;;;;;17.95;47.66;95004.66;5053569;28;20043;-71
2023/05/06 08:30:12;;;;;;;8.15;6.18;;;;;;;17.99;47.43;95005.94;5037381;28;20020;-71
2023/05/06 08:32:38;;;;;;;6.97;5.88;;;;;;;18.12;48.11;94998.34;5038289;28;20056;-72
2023/05/06 08:35:07;;;;;;;7.90;5.50;;;;;;;18.22;47.57;94999.00;5066675;28;20032;-71
2023/05/06 08:37:32;;;;;;;7.15;5.80;;;;;;;18.41;47.49;95003.00;5041863;28;20025;-72
2023/05/06 08:39:58;;;;;;;7.20;6.35;;;;;;;18.23;46.32;94998.00;5037865;28;20039;-72
2023/05/06 08:42:24;;;;;;;7.47;5.40;;;;;;;17.88;46.93;95001.03;5071876;28;20035;-71
2023/05/06 08:44:50;;;;;;;9.95;7.25;;;;;;;18.09;47.08;94983.75;5065839;28;20016;-71
2023/05/06 08:47:16;;;;;;;9.32;6.40;;;;;;;18.40;47.27;94997.94;5062830;28;20475;-72
2023/05/06 08:49:41;;;;;;;10.50;6.78;;;;;;;18.46;47.19;95005.13;5079506;28;20040;-71
2023/05/06 08:52:07;;;;;;;9.65;6.88;;;;;;;18.61;47.38;95005.22;5077166;28;20043;-72
2023/05/06 08:54:35;;;;;;;10.63;7.78;;;;;;;18.49;46.49;95007.41;5053193;28;20028;-72
2023/05/06 08:57:05;;;;;;;10.60;7.85;;;;;;;18.38;46.40;94999.91;5076679;28;20036;-72
2023/05/06 08:59:33;;;;;;;9.27;7.20;;;;;;;18.48;45.95;94997.91;5067116;28;20476;-71
2023/05/06 09:02:00;;;;;;;8.85;7.25;;;;;;;18.39;46.14;94991.03;5049674;28;20040;-71
2023/05/06 09:04:26;;;;;;;8.60;6.85;;;;;;;18.38;46.22;94992.03;5071992;28;20044;-72
2023/05/06 09:06:51;;;;;;;9.07;7.07;;;;;;;18.37;45.96;94990.38;5086478;28;20047;-72
2023/05/06 09:09:17;;;;;;;7.55;6.20;;;;;;;18.37;46.48;94985.94;5058783;28;20028;-72
2023/05/06 09:11:42;;;;;;;8.70;6.85;;;;;;;18.26;46.83;94992.38;5085786;28;20486;-72
2023/05/06 09:14:11;;;;;;;8.77;7.43;;;;;;;18.23;46.71;94995.34;5087711;28;20028;-72
2023/05/06 09:16:38;;;;;;;9.63;6.93;;;;;;;18.23;46.35;94984.84;5060976;28;20417;-72
2023/05/06 09:19:04;;;;;;;8.68;6.47;;;;;;;18.33;46.94;94989.91;5070278;28;20035;-72
2023/05/06 09:21:37;;;;;;;10.90;9.10;;;;;;;18.37;45.58;94988.56;5088924;28;20036;-72
2023/05/06 09:24:03;;;;;;;10.23;7.43;;;;;;;18.28;45.53;94979.09;5082842;28;20305;-72
2023/05/06 09:26:29;;;;;;;7.82;5.97;;;;;;;18.04;46.22;94977.34;5083638;28;20035;-72
2023/05/06 09:28:56;;;;;;;7.95;5.30;;;;;;;17.76;45.69;94969.00;5075223;28;20437;-72
2023/05/06 09:31:22;;;;;;;7.40;6.28;;;;;;;17.84;46.25;94975.09;5061558;28;20038;-72
2023/05/06 09:33:47;;;;;;;8.02;7.13;;;;;;;17.74;47.18;94952.59;5082667;28;20059;-72
2023/05/06 09:36:13;;;;;;;8.55;6.45;;;;;;;17.97;47.51;94973.75;5051999;28;20039;-72
2023/05/06 09:38:39;;;;;;;7.55;6.30;;;;;;;18.00;47.24;94957.66;5082335;28;20498;-71
2023/05/06 09:41:06;;;;;;;7.63;6.45;;;;;;;18.27;47.14;94962.47;5071460;28;20501;-72
2023/05/06 09:43:32;;;;;;;8.35;5.90;;;;;;;18.38;47.45;94963.09;5082353;28;20043;-72
2023/05/06 09:45:58;;;;;;;7.05;5.88;;;;;;;18.47;46.93;94969.94;5093699;28;20016;-72
2023/05/06 09:48:28;;;;;;;8.13;5.60;;;;;;;18.54;45.34;94968.28;5076963;28;20533;-71
2023/05/06 09:50:53;;;;;;;8.10;6.80;;;;;;;18.64;45.79;94963.63;5082344;28;20031;-71
2023/05/06 09:53:19;;;;;;;6.25;5.40;;;;;;;18.62;44.76;94952.44;5085981;28;20042;-71
2023/05/06 09:55:44;;;;;;;9.70;7.03;;;;;;;18.71;45.32;94954.03;5081691;28;20029;-71
2023/05/06 09:58:09;;;;;;;10.30;5.90;;;;;;;18.86;44.80;94958.56;5069436;28;20508;-71
2023/05/06 10:00:35;;;;;;;9.68;5.88;;;;;;;18.70;45.35;94915.56;5062979;28;20036;-72
2023/05/06 10:03:00;;;;;;;7.82;5.30;;;;;;;18.83;44.24;94953.66;5049931;28;20075;-70
2023/05/06 10:05:26;;;;;;;6.45;5.40;;;;;;;18.71;45.40;94954.03;5069723;28;20025;-71
2023/05/06 10:07:52;;;;;;;5.65;5.10;;;;;;;18.69;44.85;94950.78;5087143;28;20055;-71
2023/05/06 10:10:17;;;;;;;9.60;6.07;;;;;;;18.75;45.64;94950.13;5086802;28;20023;-71
2023/05/06 10:12:43;;;;;;;11.90;7.18;;;;;;;18.97;44.79;94950.28;5087139;28;20036;-71
2023/05/06 10:15:08;;;;;;;6.38;5.10;;;;;;;18.84;44.13;94924.56;5094178;28;20035;-71
2023/05/06 10:17:34;;;;;;;6.15;5.30;;;;;;;19.03;44.12;94949.59;5051099;28;20040;-71
2023/05/06 10:20:00;;;;;;;7.97;5.00;;;;;;;19.07;42.85;94950.88;5076317;28;20280;-71
2023/05/06 10:22:53;;;;;;;4.63;4.13;;;;;;;18.85;42.40;94947.25;5061359;28;20035;-71
2023/05/06 10:25:36;;;;;;;5.93;4.47;;;;;;;18.38;42.87;94942.06;5087741;28;20043;-72
2023/05/06 10:28:05;;;;;;;4.97;4.47;;;;;;;18.51;43.83;94944.94;5086317;28;20040;-71
2023/05/06 10:30:34;;;;;;;6.18;4.00;;;;;;;18.69;41.39;94942.88;5070993;28;20509;-72
2023/05/06 10:33:13;;;;;;;6.88;4.10;;;;;;;18.84;40.86;94944.78;5053199;28;20047;-73
2023/05/06 10:36:06;;;;;;;4.97;4.25;;;;;;;18.89;41.43;94937.19;5036702;28;20077;-72
2023/05/06 10:38:41;;;;;;;5.35;4.10;;;;;;;18.88;42.66;94930.28;5053970;28;20037;-73
2023/05/06 10:41:07;;;;;;;6.45;4.00;;;;;;;19.10;42.53;94941.81;5030535;28;20032;-70
2023/05/06 10:43:33;;;;;;;4.97;3.35;;;;;;;18.91;41.26;94937.81;5054616;28;20545;-72
2023/05/06 10:46:11;;;;;;;5.22;3.83;;;;;;;18.97;40.42;94945.84;5070388;28;20035;-71
2023/05/06 10:48:38;;;;;;;4.90;3.63;;;;;;;18.83;40.39;94940.50;5090118;28;20123;-72
2023/05/06 10:51:15;;;;;;;4.80;3.63;;;;;;;18.80;40.82;94941.69;5042043;28;20020;-71
2023/05/06 10:54:03;;;;;;;4.90;3.38;;;;;;;18.57;39.89;94939.00;5089386;28;20032;-72
2023/05/06 10:56:38;;;;;;;5.53;3.42;;;;;;;18.72;40.55;94939.91;5089589;28;20077;-73
2023/05/06 10:59:07;;;;;;;4.82;3.30;;;;;;;18.69;41.31;94937.63;5065105;28;20093;-71
2023/05/06 11:01:34;;;;;;;8.73;3.45;;;;;;;18.63;41.76;94935.66;5062491;28;20025;-72
2023/05/06 11:04:29;;;;;;;7.57;3.78;;;;;;;18.53;41.07;94928.00;5055436;28;20036;-71
2023/05/06 11:07:02;;;;;;;4.65;3.50;;;;;;;17.99;41.59;94946.31;5088970;28;20468;-71
2023/05/06 11:09:28;;;;;;;5.00;3.22;;;;;;;18.25;42.54;94932.91;5070992;28;20383;-72
2023/05/06 11:12:01;;;;;;;5.65;3.47;;;;;;;18.41;42.51;94939.06;5068466;28;20093;-72
2023/05/06 11:14:30;;;;;;;5.38;3.60;;;;;;;18.51;41.78;94931.81;5044326;28;20028;-72
2023/05/06 11:16:57;;;;;;;5.25;4.25;;;;;;;18.35;42.16;94942.41;5070896;28;20036;-72
2023/05/06 11:19:24;;;;;;;9.13;4.15;;;;;;;18.39;40.90;94928.75;5053568;28;20485;-71
2023/05/06 11:21:51;;;;;;;3.83;3.20;;;;;;;18.18;41.96;94939.84;5056581;28;20103;-72
2023/05/06 11:24:22;;;;;;;5.03;3.42;;;;;;;18.16;42.39;94944.44;5038644;28;20494;-72
2023/05/06 11:26:47;;;;;;;;;;;;;;;18.01;42.17;94936.44;5047587;28;20036;-72
2023/05/06 11:29:16;;;;;;;3.72;3.03;;;;;;;18.15;40.67;94921.78;5071428;28;19916;-72
2023/05/06 11:31:42;;;;;;;4.80;3.53;;;;;;;18.39;41.18;94927.94;5089934;28;20032;-71